Arnos Vale, Saint Vincent

6:20 AM AST on October 21, 2014 (GMT -0400)
E T Joshua | Change Station
CLOSE
Current Station
Airport
Location: Arnos Vale,
Elevation: 43 ft
Nearby Weather Stations

Elev 43 ft 13.14 °N, 61.21 °W | Updated 20 minutes ago

Partly Cloudy
Partly Cloudy
81 °F
Feels Like 86 °F
N
4
Wind Variable Wind from NE

Today
High -- | Low -- °F
--% Chance of Precip.
Yesterday
High -- | Low -- °F
Precip. -- in
5:56 AM 5:42 PM
Waning Crescent, 6% visible
Pressure Not available.
Visibility 6.2 miles
Clouds Few 1600 ft
Heat Index 86 °F
Dew Point 75 °F
Humidity 84%
Rainfall 0.00 in
Snow Depth Not available.
UV 0 out of 12
Pollen Not available.
Air Quality Not available.
Flu Activity Not available.
METAR TVSV 211000Z 05003KT 9999 FEW016 27/24 Q1013,CB TOP/N+W

More Conditions Fewer Conditions

Pressure Not available.
Visibility 6.2 miles
Clouds Few 1600 ft
Heat Index 86 °F
Dew Point 75 °F
Humidity 84%
Rainfall 0.00 in
Snow Depth Not available.
UV 0 out of 12
Pollen Not available.
Air Quality Not available.
Flu Activity Not available.
METAR TVSV 211000Z 05003KT 9999 FEW016 27/24 Q1013,CB TOP/N+W

More Conditions Fewer Conditions

10-Day Weather Forecast

Almanac

Astronomy

Oct. 21, 2014 Rise Set
Actual Time 5:56 AM AST 5:42 PM AST
Civil Twilight 5:34 AM AST 6:04 PM AST
Nautical Twilight 5:09 AM AST 6:29 PM AST
Astronomical Twilight 4:44 AM AST 6:53 PM AST
Moon 3:58 AM AST 4:15 PM AST
Length of Visible Light 12h 29m
Length of Day
11h 46m
Tomorrow will be 0m 40s shorter.
Waning Crescent, 6% of the Moon is Illuminated
Today
Waning Crescent
Oct 23
New
Oct 30
First Quarter
Nov 6
Full
Nov 14
Last Quarter

Yesterday's Extremes

Country Highs Country Lows

Community

WunderPhotos

Upload Photos

1,763,625 photos uploaded!

Nearby

Snow Depth

Not available.

Earthquake Activity

City Distance Mag. Time & Date
No recent earthquake activity has been reported nearby.
Minimum magnitude displayed is 2.5.

Coastal Water Temperatures

Place Temperature
No Stations Reporting

Nearby Weather Stations